Time;durP1;ratioP1;P1;durP2;ratioP2;P2;SDS_P1;SDS_P2;PMS_P1;PMS_P2;Temp;Humidity;BMP_temperature;BMP_pressure;BME280_temperature;BME280_humidity;BME280_pressure;Samples;Min_cycle;Max_cycle;Signal;HPM_P1;HPM_P2
2023/08/25 00:12:35;;;;;;;10.43;9.40;;;25.00;99.90;;;;;;4949445;28;20564;-80
2023/08/25 00:15:13;;;;;;;20.23;18.20;;;24.90;99.90;;;;;;4974055;28;20513;-78
2023/08/25 00:17:52;;;;;;;13.10;11.90;;;24.90;99.90;;;;;;4974228;28;20485;-79
2023/08/25 00:20:20;;;;;;;14.23;12.73;;;24.90;99.90;;;;;;4974324;28;20466;-79
2023/08/25 00:22:49;;;;;;;13.83;12.70;;;24.90;99.90;;;;;;4967453;28;20471;-79
2023/08/25 00:25:16;;;;;;;11.17;10.17;;;24.90;99.90;;;;;;4975809;28;20478;-79
2023/08/25 00:27:46;;;;;;;16.93;15.33;;;24.90;99.90;;;;;;4974708;28;20534;-78
2023/08/25 00:30:16;;;;;;;19.47;17.40;;;24.90;99.90;;;;;;4995333;28;20557;-80
2023/08/25 00:32:44;;;;;;;13.03;11.70;;;24.90;99.90;;;;;;4982383;28;20474;-80
2023/08/25 00:35:13;;;;;;;11.50;10.50;;;24.90;99.90;;;;;;4974608;28;20486;-80
2023/08/25 00:37:41;;;;;;;5.60;5.20;;;25.00;99.90;;;;;;4974399;28;20471;-79
2023/08/25 00:40:10;;;;;;;6.20;5.63;;;25.00;99.90;;;;;;4974529;28;20529;-80
2023/08/25 00:42:37;;;;;;;6.27;5.37;;;25.00;99.90;;;;;;4965322;28;20981;-80
2023/08/25 00:45:06;;;;;;;6.30;5.23;;;24.90;99.90;;;;;;4973300;28;20934;-82
2023/08/25 00:47:55;;;;;;;5.00;4.70;;;24.90;99.90;;;;;;4973818;28;20869;-80
2023/08/25 00:50:23;;;;;;;5.40;4.90;;;25.00;99.90;;;;;;4973933;28;20969;-80
2023/08/25 00:52:50;;;;;;;5.97;5.57;;;24.90;99.90;;;;;;4972969;28;20786;-77
2023/08/25 00:55:17;;;;;;;7.80;5.07;;;24.90;99.90;;;;;;4973246;28;20561;-78
2023/08/25 00:57:46;;;;;;;5.17;4.77;;;24.90;99.90;;;;;;4972615;28;20478;-78
2023/08/25 01:00:15;;;;;;;6.13;5.47;;;24.90;99.90;;;;;;4973430;28;20479;-79
2023/08/25 01:02:42;;;;;;;5.73;5.27;;;24.90;99.90;;;;;;4972722;28;20570;-81
2023/08/25 01:05:09;;;;;;;4.90;4.60;;;24.90;99.90;;;;;;4974760;28;20541;-78
2023/08/25 01:07:36;;;;;;;5.37;4.87;;;24.90;99.90;;;;;;4974233;28;20566;-78
2023/08/25 01:10:04;;;;;;;5.73;5.20;;;24.90;99.90;;;;;;4974581;28;20503;-80
2023/08/25 01:12:41;;;;;;;5.83;5.33;;;24.90;99.90;;;;;;4974758;28;20542;-80
2023/08/25 01:15:13;;;;;;;5.70;5.30;;;24.80;99.90;;;;;;4974605;28;20479;-79
2023/08/25 01:17:46;;;;;;;5.43;5.03;;;24.80;99.90;;;;;;4974433;28;20474;-80
2023/08/25 01:20:16;;;;;;;6.37;5.20;;;24.80;99.90;;;;;;4974999;28;20482;-79
2023/08/25 01:22:51;;;;;;;5.10;4.70;;;24.80;99.90;;;;;;4974170;28;20478;-79
2023/08/25 01:25:24;;;;;;;5.50;5.10;;;24.80;99.90;;;;;;4974715;28;20534;-80
2023/08/25 01:27:52;;;;;;;6.30;5.00;;;24.80;99.90;;;;;;4974169;28;21001;-80
2023/08/25 01:30:19;;;;;;;6.30;5.40;;;24.70;99.90;;;;;;4974807;28;20471;-80
2023/08/25 01:32:47;;;;;;;6.13;5.53;;;24.70;99.90;;;;;;4974477;28;20976;-81
2023/08/25 01:35:15;;;;;;;8.20;5.67;;;24.60;99.90;;;;;;4974788;28;20482;-79
2023/08/25 01:37:53;;;;;;;5.83;5.27;;;24.50;99.90;;;;;;4974411;28;20885;-80
2023/08/25 01:40:27;;;;;;;6.43;6.03;;;24.50;99.90;;;;;;4975080;28;20506;-80
2023/08/25 01:42:56;;;;;;;5.93;5.43;;;24.50;99.90;;;;;;4974598;28;20489;-80
2023/08/25 01:45:24;;;;;;;6.20;5.70;;;24.60;99.90;;;;;;4974742;28;20489;-81
2023/08/25 01:47:57;;;;;;;8.70;5.80;;;24.50;99.90;;;;;;4974263;28;20483;-80
2023/08/25 01:50:24;;;;;;;6.20;5.70;;;24.50;99.90;;;;;;4974432;28;20546;-80
2023/08/25 01:52:51;;;;;;;5.80;5.40;;;24.50;99.90;;;;;;4974312;28;20473;-80
2023/08/25 01:55:18;;;;;;;5.20;4.90;;;24.60;99.90;;;;;;4975042;28;20545;-81
2023/08/25 01:57:47;;;;;;;5.70;5.23;;;24.60;99.90;;;;;;4973931;28;20849;-80
2023/08/25 02:00:15;;;;;;;5.87;5.37;;;24.60;99.90;;;;;;4974667;28;20474;-80
2023/08/25 02:02:42;;;;;;;6.23;5.10;;;24.60;99.90;;;;;;4973603;28;20485;-81
2023/08/25 02:05:09;;;;;;;5.53;5.13;;;24.60;99.90;;;;;;4974430;28;20489;-80
2023/08/25 02:07:36;;;;;;;5.50;5.10;;;24.60;99.90;;;;;;4974521;28;20471;-79
2023/08/25 02:10:04;;;;;;;5.90;5.40;;;24.70;99.90;;;;;;4974350;28;20479;-79
2023/08/25 02:12:31;;;;;;;6.00;5.60;;;24.70;99.90;;;;;;4974647;28;20807;-80
2023/08/25 02:14:59;;;;;;;6.00;5.50;;;24.70;99.90;;;;;;4973539;28;20868;-79
2023/08/25 02:17:27;;;;;;;5.30;5.00;;;24.70;99.90;;;;;;4974432;28;20474;-79
2023/08/25 02:19:54;;;;;;;6.07;5.57;;;24.70;99.90;;;;;;4977272;28;20466;-80
2023/08/25 02:22:21;;;;;;;5.37;4.97;;;24.70;99.90;;;;;;4977735;28;20857;-79
2023/08/25 02:24:48;;;;;;;6.13;5.60;;;24.70;99.90;;;;;;4977194;28;20525;-80
2023/08/25 02:27:17;;;;;;;6.43;5.80;;;24.70;99.90;;;;;;4977943;28;20854;-81
2023/08/25 02:29:44;;;;;;;6.60;6.20;;;24.60;99.90;;;;;;4966756;28;20521;-79
2023/08/25 02:32:12;;;;;;;6.50;6.10;;;24.60;99.90;;;;;;4977707;28;20549;-79
2023/08/25 02:34:40;;;;;;;5.97;5.50;;;24.60;99.90;;;;;;4977440;28;20479;-80
2023/08/25 02:37:08;;;;;;;6.10;5.70;;;24.70;99.90;;;;;;4977855;28;20557;-79
2023/08/25 02:39:35;;;;;;;5.23;4.93;;;24.60;99.90;;;;;;4977862;28;20475;-79
2023/08/25 02:42:03;;;;;;;6.23;5.83;;;24.60;99.90;;;;;;4977345;28;20858;-78
2023/08/25 02:44:30;;;;;;;5.23;4.93;;;24.60;99.90;;;;;;4977267;28;20983;-80
2023/08/25 02:46:56;;;;;;;5.80;5.40;;;24.70;99.90;;;;;;4977427;28;20533;-80
2023/08/25 02:49:25;;;;;;;6.97;6.20;;;24.60;99.90;;;;;;4977214;28;20470;-79
2023/08/25 02:51:52;;;;;;;6.30;5.83;;;24.60;99.90;;;;;;4976953;28;20475;-77
2023/08/25 02:54:22;;;;;;;6.30;5.80;;;24.60;99.90;;;;;;4977277;28;20474;-78
2023/08/25 02:56:50;;;;;;;5.37;5.00;;;24.60;99.90;;;;;;4976628;28;21069;-78
2023/08/25 02:59:17;;;;;;;5.90;5.40;;;24.60;99.90;;;;;;4977092;28;20482;-79
2023/08/25 03:01:44;;;;;;;6.97;6.40;;;24.60;99.90;;;;;;4976762;28;20470;-79
2023/08/25 03:04:11;;;;;;;7.40;6.70;;;24.60;99.90;;;;;;4976532;28;20471;-78
2023/08/25 03:06:39;;;;;;;5.60;5.20;;;24.60;99.90;;;;;;4977680;28;20533;-78
2023/08/25 03:09:06;;;;;;;5.67;5.27;;;24.60;99.90;;;;;;4976774;28;20465;-79
2023/08/25 03:11:33;;;;;;;6.40;5.90;;;24.60;99.90;;;;;;4977259;28;20476;-78
2023/08/25 03:14:03;;;;;;;5.90;5.50;;;24.60;99.90;;;;;;4976709;28;20484;-78
2023/08/25 03:16:31;;;;;;;5.93;5.53;;;24.60;99.90;;;;;;4977007;28;20466;-79
2023/08/25 03:18:58;;;;;;;6.10;5.70;;;24.60;99.90;;;;;;4976558;28;20550;-79
2023/08/25 03:21:25;;;;;;;6.07;5.53;;;24.50;99.90;;;;;;4977246;28;20995;-80
2023/08/25 03:23:53;;;;;;;6.30;5.80;;;24.50;99.90;;;;;;4976059;28;20850;-79
2023/08/25 03:26:23;;;;;;;6.83;6.33;;;24.50;99.90;;;;;;4977089;28;20471;-77
2023/08/25 03:28:49;;;;;;;6.03;5.63;;;24.50;99.90;;;;;;4975981;28;20565;-80
2023/08/25 03:31:16;;;;;;;6.80;6.40;;;24.50;99.90;;;;;;4974827;28;20471;-79
2023/08/25 03:33:43;;;;;;;6.43;6.03;;;24.50;99.90;;;;;;4976371;28;20482;-80
2023/08/25 03:36:10;;;;;;;6.27;5.87;;;24.50;99.90;;;;;;4976183;28;20549;-80
2023/08/25 03:38:37;;;;;;;7.20;6.70;;;24.50;99.90;;;;;;4976223;28;20498;-81
2023/08/25 03:41:06;;;;;;;6.67;6.17;;;24.50;99.90;;;;;;4966528;28;20979;-80
2023/08/25 03:43:35;;;;;;;6.40;6.00;;;24.40;99.90;;;;;;4976567;28;21009;-79
2023/08/25 03:46:02;;;;;;;5.57;5.27;;;24.40;99.90;;;;;;4975499;28;20506;-79
2023/08/25 03:48:29;;;;;;;6.30;5.90;;;24.40;99.90;;;;;;4976822;28;20806;-80
2023/08/25 03:50:56;;;;;;;6.77;6.33;;;24.40;99.90;;;;;;4976241;28;20481;-80
2023/08/25 03:53:23;;;;;;;7.30;6.70;;;24.40;99.90;;;;;;4976539;28;20502;-79
2023/08/25 03:55:51;;;;;;;6.00;5.53;;;24.40;99.90;;;;;;4975609;28;20470;-80
2023/08/25 03:58:19;;;;;;;6.43;6.03;;;24.40;99.90;;;;;;4978581;28;20494;-80
2023/08/25 04:00:52;;;;;;;5.90;5.50;;;24.40;99.90;;;;;;4979221;28;20481;-79
2023/08/25 04:03:24;;;;;;;7.47;6.97;;;24.30;99.90;;;;;;4977251;28;20917;-79
2023/08/25 04:05:51;;;;;;;7.63;6.60;;;24.30;99.90;;;;;;4975564;28;20487;-79
2023/08/25 04:08:18;;;;;;;7.67;7.07;;;24.30;99.90;;;;;;4976074;28;20525;-80
2023/08/25 04:10:47;;;;;;;7.10;6.57;;;24.30;99.90;;;;;;4977080;28;20497;-79
2023/08/25 04:13:14;;;;;;;7.30;6.80;;;24.30;99.90;;;;;;4976469;28;20474;-79
2023/08/25 04:15:43;;;;;;;6.80;6.30;;;24.30;99.90;;;;;;4977184;28;20553;-78
2023/08/25 04:18:10;;;;;;;6.80;6.40;;;24.30;99.90;;;;;;4966017;28;20479;-79
2023/08/25 04:23:12;;;;;;;6.73;6.23;;;24.30;99.90;;;;;;5033355;28;20265;-80
2023/08/25 04:25:39;;;;;;;6.40;6.00;;;24.30;99.90;;;;;;5035114;28;20464;-80
2023/08/25 04:28:06;;;;;;;6.50;6.10;;;24.30;99.90;;;;;;5034255;28;20483;-79
2023/08/25 04:30:34;;;;;;;6.10;5.63;;;24.20;99.90;;;;;;5034025;28;20468;-80
2023/08/25 04:33:02;;;;;;;5.77;5.37;;;24.30;99.90;;;;;;5033751;28;20809;-79
2023/08/25 04:35:32;;;;;;;6.47;6.10;;;24.20;99.90;;;;;;5034704;28;20456;-79
2023/08/25 04:38:06;;;;;;;6.13;5.73;;;24.20;99.90;;;;;;5026526;28;20523;-80
2023/08/25 04:40:33;;;;;;;6.73;6.23;;;24.20;99.90;;;;;;5033874;28;20465;-79
2023/08/25 04:43:00;;;;;;;7.60;7.00;;;24.20;99.90;;;;;;5034736;28;20976;-79
2023/08/25 04:45:32;;;;;;;6.43;5.93;;;24.20;99.90;;;;;;5034062;28;20476;-80
2023/08/25 04:47:59;;;;;;;6.73;6.23;;;24.20;99.90;;;;;;5034418;28;20494;-80
2023/08/25 04:50:27;;;;;;;7.23;6.63;;;24.20;99.90;;;;;;5034279;28;20948;-80
2023/08/25 04:52:54;;;;;;;7.37;6.77;;;24.20;99.90;;;;;;5035184;28;20460;-80
2023/08/25 04:55:21;;;;;;;7.10;6.50;;;24.30;99.90;;;;;;5034441;28;20602;-79
2023/08/25 04:57:48;;;;;;;7.40;6.80;;;24.30;99.90;;;;;;5034964;28;20530;-80
2023/08/25 05:00:15;;;;;;;6.63;6.10;;;24.20;99.90;;;;;;5034074;28;20572;-79
2023/08/25 05:02:42;;;;;;;7.30;6.80;;;24.30;99.90;;;;;;5034718;28;20463;-79
2023/08/25 05:05:11;;;;;;;7.03;6.53;;;24.30;99.90;;;;;;5033259;28;20480;-79
2023/08/25 05:07:39;;;;;;;7.57;6.97;;;24.30;99.90;;;;;;5033891;28;20486;-79
2023/08/25 05:10:08;;;;;;;7.60;6.80;;;24.30;99.90;;;;;;5034207;28;20483;-79
2023/08/25 05:12:35;;;;;;;7.47;6.77;;;24.30;99.90;;;;;;5033552;28;20460;-79
2023/08/25 05:15:04;;;;;;;6.60;6.10;;;24.30;99.90;;;;;;5034449;28;20506;-80
2023/08/25 05:17:33;;;;;;;6.90;6.40;;;24.30;99.90;;;;;;5033383;28;20468;-79
2023/08/25 05:20:02;;;;;;;7.20;6.60;;;24.30;99.90;;;;;;5025668;28;20464;-79
2023/08/25 05:22:30;;;;;;;10.43;6.93;;;24.30;99.90;;;;;;5033553;28;20476;-80
2023/08/25 05:24:58;;;;;;;7.43;6.97;;;24.30;99.90;;;;;;5033842;28;20480;-79
2023/08/25 05:27:25;;;;;;;7.40;6.90;;;24.40;99.90;;;;;;5033929;28;20525;-78
2023/08/25 05:29:52;;;;;;;6.37;5.93;;;24.30;99.90;;;;;;5033906;28;20499;-79
2023/08/25 05:32:19;;;;;;;7.67;7.07;;;24.30;99.90;;;;;;5033534;28;20475;-79
2023/08/25 05:34:48;;;;;;;7.00;6.40;;;24.40;99.90;;;;;;5033948;28;20475;-80
2023/08/25 05:37:15;;;;;;;8.20;7.33;;;24.40;99.90;;;;;;5033819;28;20468;-80
2023/08/25 05:39:42;;;;;;;8.47;7.47;;;24.50;99.90;;;;;;5033405;28;20926;-80
2023/08/25 05:42:14;;;;;;;6.90;6.40;;;24.50;99.90;;;;;;5034162;28;20526;-80
2023/08/25 05:44:41;;;;;;;7.43;6.83;;;24.50;99.90;;;;;;5034279;28;20781;-79
2023/08/25 05:47:09;;;;;;;6.70;6.20;;;24.60;99.90;;;;;;5034095;28;20468;-79
2023/08/25 05:49:36;;;;;;;6.97;6.27;;;24.60;99.90;;;;;;5032644;28;20546;-79
2023/08/25 05:52:03;;;;;;;7.37;6.83;;;24.60;99.90;;;;;;5034122;28;20476;-80
2023/08/25 05:54:30;;;;;;;7.40;6.80;;;24.60;99.90;;;;;;5036559;28;20543;-79
2023/08/25 05:56:59;;;;;;;6.47;5.83;;;24.60;99.90;;;;;;5038316;28;20495;-80
2023/08/25 05:59:28;;;;;;;7.23;6.63;;;24.60;99.90;;;;;;5037259;28;20472;-79
2023/08/25 06:01:57;;;;;;;7.70;7.17;;;24.60;99.90;;;;;;5037912;28;20989;-80
2023/08/25 06:04:25;;;;;;;8.03;7.43;;;24.60;99.90;;;;;;5037649;28;20519;-80
2023/08/25 06:06:53;;;;;;;7.37;6.50;;;24.60;99.90;;;;;;5037422;28;20468;-80
2023/08/25 06:09:21;;;;;;;7.60;6.87;;;24.60;99.90;;;;;;5042137;28;20474;-80
2023/08/25 06:11:53;;;;;;;8.63;7.83;;;24.60;99.90;;;;;;5029493;28;21359;-79
2023/08/25 06:14:20;;;;;;;8.40;7.70;;;24.60;99.90;;;;;;5037765;28;20507;-81
2023/08/25 06:16:48;;;;;;;6.70;6.10;;;24.60;99.90;;;;;;5037185;28;20473;-80
2023/08/25 06:19:15;;;;;;;6.80;6.30;;;24.60;99.90;;;;;;5037402;28;20806;-79
2023/08/25 06:21:42;;;;;;;7.03;6.53;;;24.60;99.90;;;;;;5037279;28;20522;-79
2023/08/25 06:24:09;;;;;;;6.53;6.13;;;24.60;99.90;;;;;;5037519;28;20459;-77
2023/08/25 06:26:36;;;;;;;11.70;7.67;;;24.70;99.90;;;;;;5037250;28;20479;-78
2023/08/25 06:29:05;;;;;;;7.87;7.10;;;24.70;99.90;;;;;;5036402;28;20534;-77
2023/08/25 06:31:36;;;;;;;6.77;6.27;;;24.70;99.90;;;;;;5034747;28;20571;-79
2023/08/25 06:34:10;;;;;;;8.40;7.70;;;24.80;99.90;;;;;;5028307;28;20884;-79
2023/08/25 06:36:39;;;;;;;7.17;6.70;;;24.80;99.90;;;;;;5028101;28;20464;-78
2023/08/25 06:39:06;;;;;;;7.70;7.10;;;24.80;99.90;;;;;;5038827;28;20472;-78
2023/08/25 06:41:33;;;;;;;10.10;7.53;;;24.90;99.90;;;;;;5036514;28;20953;-79
2023/08/25 06:44:00;;;;;;;7.80;7.13;;;24.90;99.90;;;;;;5042284;28;20479;-79
2023/08/25 06:46:27;;;;;;;7.73;7.13;;;24.90;99.90;;;;;;5037446;28;20788;-78
2023/08/25 06:48:54;;;;;;;7.90;7.30;;;24.90;99.90;;;;;;5036973;28;21009;-79
2023/08/25 06:51:22;;;;;;;7.70;7.10;;;25.00;99.90;;;;;;5036419;28;20469;-79
2023/08/25 06:53:49;;;;;;;8.43;7.60;;;25.00;99.90;;;;;;5036407;28;20877;-79
2023/08/25 06:56:16;;;;;;;8.10;7.60;;;25.00;99.90;;;;;;5036616;28;20468;-80
2023/08/25 06:58:43;;;;;;;8.33;7.67;;;25.10;99.90;;;;;;5036736;28;20482;-79
2023/08/25 07:01:28;;;;;;;7.50;7.00;;;25.10;99.90;;;;;;5036370;28;20484;-78
2023/08/25 07:03:55;;;;;;;7.90;7.37;;;25.10;99.90;;;;;;5036534;28;20833;-77
2023/08/25 07:06:25;;;;;;;8.33;7.67;;;25.10;99.90;;;;;;5027155;28;20480;-78
2023/08/25 07:08:53;;;;;;;8.50;7.83;;;25.20;99.90;;;;;;5036488;28;20468;-79
2023/08/25 07:11:20;;;;;;;7.37;6.87;;;25.20;99.90;;;;;;5035859;28;20472;-79
2023/08/25 07:13:47;;;;;;;7.90;7.10;;;25.20;99.90;;;;;;5036848;28;20787;-79
2023/08/25 07:16:15;;;;;;;7.97;7.27;;;25.30;99.90;;;;;;5036142;28;20472;-79
2023/08/25 07:18:52;;;;;;;7.93;7.23;;;25.40;99.90;;;;;;5036640;28;20461;-79
2023/08/25 07:21:19;;;;;;;8.00;7.30;;;25.40;99.90;;;;;;5035745;28;20467;-78
2023/08/25 07:23:51;;;;;;;7.83;7.23;;;25.50;99.90;;;;;;5036182;28;21007;-78
2023/08/25 07:26:19;;;;;;;8.57;7.80;;;25.60;99.90;;;;;;5035928;28;20976;-78
2023/08/25 07:28:47;;;;;;;7.90;7.30;;;25.60;99.90;;;;;;5036098;28;20464;-80
2023/08/25 07:31:14;;;;;;;8.57;7.97;;;25.60;99.90;;;;;;5035969;28;20553;-79
2023/08/25 07:33:54;;;;;;;9.50;8.70;;;25.70;99.90;;;;;;5036223;28;20494;-80
2023/08/25 07:36:21;;;;;;;8.43;7.83;;;25.80;99.90;;;;;;5035031;28;20468;-79
2023/08/25 07:38:58;;;;;;;8.47;7.73;;;25.80;99.90;;;;;;5034598;28;20961;-79
2023/08/25 07:41:26;;;;;;;7.50;6.90;;;25.90;99.90;;;;;;5035053;28;20473;-79
2023/08/25 07:43:53;;;;;;;8.63;7.50;;;26.00;99.90;;;;;;5035955;28;20582;-78
2023/08/25 07:46:20;;;;;;;7.87;7.30;;;26.00;99.90;;;;;;5035329;28;20549;-78
2023/08/25 07:48:47;;;;;;;8.80;8.17;;;26.00;99.90;;;;;;5034923;28;20492;-79
2023/08/25 07:51:16;;;;;;;6.67;6.27;;;26.10;99.90;;;;;;5035009;28;20478;-80
2023/08/25 07:53:44;;;;;;;7.50;6.93;;;26.10;99.90;;;;;;5035705;28;20474;-79
2023/08/25 07:56:13;;;;;;;7.23;6.70;;;26.20;99.90;;;;;;5035206;28;20526;-80
2023/08/25 07:58:40;;;;;;;6.73;6.30;;;26.20;99.90;;;;;;5035493;28;20456;-79
2023/08/25 08:01:07;;;;;;;6.17;5.67;;;26.30;99.90;;;;;;5035749;28;20469;-79
2023/08/25 08:03:34;;;;;;;6.20;5.57;;;26.30;99.90;;;;;;5035356;28;20479;-79
2023/08/25 08:08:55;;;;;;;7.90;7.20;;;26.40;99.90;;;;;;5030330;28;20547;-79
2023/08/25 08:11:23;;;;;;;6.80;6.37;;;26.50;99.90;;;;;;5034944;28;20790;-80
2023/08/25 08:13:50;;;;;;;7.30;6.80;;;26.50;99.90;;;;;;5035758;28;20475;-79
2023/08/25 08:16:17;;;;;;;6.30;5.90;;;26.60;99.90;;;;;;5033893;28;20469;-78
2023/08/25 08:18:58;;;;;;;6.50;6.00;;;26.60;99.90;;;;;;5035390;28;20495;-79
2023/08/25 08:21:25;;;;;;;7.00;6.40;;;26.60;99.90;;;;;;5034827;28;20472;-78
2023/08/25 08:24:21;;;;;;;5.40;5.00;;;26.70;99.90;;;;;;5030436;28;20486;-80
2023/08/25 08:26:49;;;;;;;5.97;5.50;;;26.70;99.90;;;;;;5040116;28;20486;-78
2023/08/25 08:29:30;;;;;;;6.23;5.83;;;26.80;99.90;;;;;;5035212;28;21071;-80
2023/08/25 08:31:57;;;;;;;6.10;5.70;;;26.80;99.90;;;;;;5042926;28;20478;-79
2023/08/25 08:34:24;;;;;;;5.70;5.30;;;26.80;99.90;;;;;;5035213;28;20541;-79
2023/08/25 08:36:51;;;;;;;6.40;5.90;;;26.90;99.90;;;;;;5034852;28;20503;-79
2023/08/25 08:39:18;;;;;;;6.23;5.73;;;26.90;99.90;;;;;;5034787;28;20469;-78
2023/08/25 08:41:48;;;;;;;6.67;6.27;;;26.90;99.90;;;;;;5034827;28;20472;-78
2023/08/25 08:44:20;;;;;;;5.67;5.27;;;27.00;99.90;;;;;;5034536;28;20499;-79
2023/08/25 08:46:50;;;;;;;5.53;5.23;;;27.00;99.90;;;;;;5034622;28;20478;-79
2023/08/25 08:49:21;;;;;;;5.87;5.37;;;27.00;99.90;;;;;;5034569;28;20478;-80
2023/08/25 08:52:12;;;;;;;6.53;6.03;;;27.00;99.90;;;;;;5033565;28;20871;-78
2023/08/25 08:54:44;;;;;;;6.17;5.67;;;27.10;99.90;;;;;;5033742;28;20503;-79
2023/08/25 08:57:14;;;;;;;6.77;6.07;;;27.10;99.90;;;;;;5038883;28;20528;-79
2023/08/25 08:59:43;;;;;;;5.97;5.57;;;27.10;99.90;;;;;;5033586;28;20542;-80
2023/08/25 09:02:18;;;;;;;5.20;4.73;;;27.20;99.90;;;;;;5034435;28;20477;-81
2023/08/25 09:04:59;;;;;;;5.70;5.40;;;27.20;99.90;;;;;;5033647;28;20503;-80
2023/08/25 09:07:31;;;;;;;5.83;5.43;;;27.20;99.90;;;;;;5033314;28;20475;-81
2023/08/25 09:09:58;;;;;;;5.20;4.80;;;27.20;99.90;;;;;;5034299;28;20477;-80
2023/08/25 09:12:26;;;;;;;5.83;5.33;;;27.20;99.90;;;;;;5032789;28;20978;-79
2023/08/25 09:14:54;;;;;;;5.40;4.97;;;27.20;99.90;;;;;;5041744;28;20482;-79
2023/08/25 09:17:22;;;;;;;6.00;5.50;;;27.30;99.90;;;;;;5034390;28;20965;-80
2023/08/25 09:19:53;;;;;;;5.23;4.93;;;27.20;99.90;;;;;;5034564;28;20482;-78
2023/08/25 09:22:32;;;;;;;5.73;5.33;;;27.30;99.90;;;;;;5039022;28;20484;-78
2023/08/25 09:25:04;;;;;;;5.40;5.00;;;27.20;99.90;;;;;;5026976;28;21032;-80
2023/08/25 09:27:41;;;;;;;5.03;4.63;;;27.20;99.90;;;;;;5045352;28;20535;-80
2023/08/25 09:30:10;;;;;;;5.27;4.87;;;27.20;99.90;;;;;;5033331;28;20470;-80
2023/08/25 09:32:40;;;;;;;5.53;5.23;;;27.20;99.90;;;;;;5033962;28;20474;-80
2023/08/25 09:35:21;;;;;;;5.43;5.13;;;27.20;99.90;;;;;;5033324;28;20526;-80
2023/08/25 09:38:03;;;;;;;5.33;4.93;;;27.20;99.90;;;;;;5033197;28;20471;-80
2023/08/25 09:40:40;;;;;;;5.80;5.40;;;27.20;99.90;;;;;;5033908;28;20485;-78
2023/08/25 09:43:07;;;;;;;5.07;4.70;;;27.20;99.90;;;;;;5031788;28;20474;-79
2023/08/25 09:45:37;;;;;;;4.83;4.50;;;27.20;99.90;;;;;;5033495;28;20946;-78
2023/08/25 09:48:13;;;;;;;7.40;5.27;;;27.20;99.90;;;;;;5027163;28;20470;-80
2023/08/25 09:50:41;;;;;;;5.43;5.03;;;27.30;99.90;;;;;;5030472;28;20489;-79
2023/08/25 09:53:12;;;;;;;5.47;5.00;;;27.40;99.90;;;;;;5041592;28;20526;-79
2023/08/25 09:55:40;;;;;;;5.87;5.33;;;27.40;99.90;;;;;;5033663;28;20509;-78
2023/08/25 09:58:11;;;;;;;6.00;5.60;;;27.50;99.90;;;;;;5033971;28;20532;-78
2023/08/25 10:00:41;;;;;;;5.77;5.27;;;27.60;99.90;;;;;;5034386;28;20475;-78
2023/08/25 10:03:09;;;;;;;6.07;4.83;;;27.70;99.90;;;;;;5024934;28;20482;-79
2023/08/25 10:05:38;;;;;;;4.77;4.47;;;27.70;99.90;;;;;;5048145;28;20986;-79
2023/08/25 10:08:07;;;;;;;5.37;4.97;;;27.70;99.90;;;;;;5033955;28;20471;-80
2023/08/25 10:10:36;;;;;;;5.37;4.97;;;27.60;99.90;;;;;;5036802;28;20470;-79
2023/08/25 10:13:05;;;;;;;5.20;4.80;;;27.60;99.90;;;;;;5033200;28;20471;-80
2023/08/25 10:15:36;;;;;;;4.90;4.60;;;27.60;99.90;;;;;;5034177;28;20463;-79
2023/08/25 10:18:06;;;;;;;5.97;5.40;;;27.60;99.90;;;;;;5033612;28;20509;-79
2023/08/25 10:20:35;;;;;;;4.87;4.47;;;27.60;99.90;;;;;;5033924;28;20548;-79
2023/08/25 10:23:11;;;;;;;5.17;4.87;;;27.50;99.90;;;;;;5033235;28;20852;-79
2023/08/25 10:25:39;;;;;;;5.47;5.10;;;27.50;99.90;;;;;;5032932;28;20481;-79
2023/08/25 10:28:11;;;;;;;5.77;5.27;;;27.40;99.90;;;;;;5032611;28;20469;-80
2023/08/25 10:30:39;;;;;;;5.37;4.97;;;27.40;99.90;;;;;;5033849;28;20467;-79
2023/08/25 10:33:12;;;;;;;5.80;4.77;;;27.40;99.90;;;;;;5032595;28;20495;-80
2023/08/25 10:35:43;;;;;;;5.60;5.20;;;27.40;99.90;;;;;;5032333;28;20541;-79
2023/08/25 10:38:35;;;;;;;5.17;4.87;;;27.40;99.90;;;;;;5032979;28;20494;-78
2023/08/25 10:41:14;;;;;;;5.60;5.20;;;27.40;99.90;;;;;;5037057;28;20783;-79
2023/08/25 10:43:48;;;;;;;5.60;4.97;;;27.40;99.90;;;;;;5037689;28;20967;-79
2023/08/25 10:46:17;;;;;;;5.60;5.17;;;27.30;99.90;;;;;;5036710;28;20469;-80
2023/08/25 10:48:47;;;;;;;5.57;5.17;;;27.30;99.90;;;;;;5042687;28;20477;-80
2023/08/25 10:51:22;;;;;;;4.90;4.60;;;27.30;99.90;;;;;;5038706;28;20932;-79
2023/08/25 10:53:52;;;;;;;5.97;5.37;;;27.30;99.90;;;;;;5038502;28;20470;-79
2023/08/25 10:56:24;;;;;;;5.23;4.93;;;27.30;99.90;;;;;;5024714;28;20473;-79
2023/08/25 10:58:59;;;;;;;5.23;4.90;;;27.20;99.90;;;;;;5036999;28;20475;-80
2023/08/25 11:01:28;;;;;;;5.40;5.07;;;27.20;99.90;;;;;;5036550;28;20459;-78
2023/08/25 11:04:07;;;;;;;5.50;5.10;;;27.30;99.90;;;;;;5037273;28;20469;-79
2023/08/25 11:06:41;;;;;;;5.30;4.90;;;27.30;99.90;;;;;;5033025;28;20972;-80
2023/08/25 11:09:31;;;;;;;5.27;4.97;;;27.20;99.90;;;;;;5051343;28;21145;-79
2023/08/25 11:12:01;;;;;;;4.17;3.90;;;27.30;99.90;;;;;;5035687;28;20962;-80
2023/08/25 11:14:29;;;;;;;4.90;4.60;;;27.20;99.90;;;;;;5038293;28;20542;-79
2023/08/25 11:16:59;;;;;;;5.10;4.70;;;27.20;99.90;;;;;;5037915;28;20476;-79
2023/08/25 11:19:27;;;;;;;4.93;4.63;;;27.20;99.90;;;;;;5039107;28;20488;-80
2023/08/25 11:22:00;;;;;;;5.00;4.60;;;27.30;99.90;;;;;;5039391;28;20855;-80
2023/08/25 11:24:27;;;;;;;5.87;5.47;;;27.30;99.90;;;;;;5036955;28;20979;-80
2023/08/25 11:27:03;;;;;;;4.63;4.33;;;27.30;99.90;;;;;;5037209;28;20965;-80
2023/08/25 11:29:33;;;;;;;4.63;4.30;;;27.30;99.90;;;;;;5037772;28;20544;-79
2023/08/25 11:32:00;;;;;;;4.87;4.57;;;27.40;99.90;;;;;;5037873;28;20520;-79
2023/08/25 11:34:35;;;;;;;4.93;4.63;;;27.40;99.90;;;;;;5039471;28;20796;-81
2023/08/25 11:37:03;;;;;;;5.50;5.10;;;27.40;99.90;;;;;;5039709;28;20491;-79
2023/08/25 11:39:30;;;;;;;4.73;4.43;;;27.40;99.90;;;;;;5037906;28;20468;-80
2023/08/25 11:41:58;;;;;;;4.47;4.17;;;27.30;99.90;;;;;;5037596;28;20466;-80
2023/08/25 11:44:25;;;;;;;10.77;5.70;;;27.30;99.90;;;;;;5038351;28;20479;-80
2023/08/25 11:46:53;;;;;;;5.20;4.90;;;27.30;99.90;;;;;;5036870;28;20546;-79
2023/08/25 11:49:20;;;;;;;5.73;5.33;;;27.30;99.90;;;;;;5036756;28;20556;-78
2023/08/25 11:51:50;;;;;;;5.77;5.27;;;27.30;99.90;;;;;;5035848;28;20466;-79
2023/08/25 11:54:17;;;;;;;5.80;5.30;;;27.40;99.90;;;;;;5036714;28;20506;-80
2023/08/25 11:56:50;;;;;;;4.97;4.67;;;27.40;99.90;;;;;;5035399;28;20981;-79
2023/08/25 11:59:18;;;;;;;5.13;4.83;;;27.40;99.90;;;;;;5035895;28;20517;-80
2023/08/25 12:01:46;;;;;;;5.20;4.80;;;27.30;99.90;;;;;;5034840;28;20547;-81
2023/08/25 12:04:24;;;;;;;5.60;5.10;;;27.30;99.90;;;;;;5035265;28;20475;-80
2023/08/25 12:06:57;;;;;;;5.77;4.50;;;27.30;99.90;;;;;;5034288;28;20475;-79
2023/08/25 12:09:31;;;;;;;4.47;4.10;;;27.30;99.90;;;;;;5026048;28;20566;-79
2023/08/25 12:11:59;;;;;;;5.07;4.57;;;27.30;99.90;;;;;;5034572;28;20505;-79
2023/08/25 12:14:31;;;;;;;5.57;5.17;;;27.30;99.90;;;;;;5035253;28;20467;-78
2023/08/25 12:17:00;;;;;;;5.30;4.90;;;27.30;99.90;;;;;;5035190;28;20475;-80
2023/08/25 12:19:30;;;;;;;5.93;4.90;;;27.30;99.90;;;;;;5035043;28;20553;-79
2023/08/25 12:21:58;;;;;;;5.37;5.07;;;27.30;99.90;;;;;;5026114;28;20558;-81
2023/08/25 12:24:26;;;;;;;5.63;4.90;;;27.20;99.90;;;;;;5048900;28;20529;-81
2023/08/25 12:26:53;;;;;;;5.07;4.73;;;27.20;99.90;;;;;;5033947;28;20566;-80
2023/08/25 12:29:20;;;;;;;5.53;5.13;;;27.30;99.90;;;;;;5035137;28;20538;-80
2023/08/25 12:31:47;;;;;;;5.17;4.70;;;27.30;99.90;;;;;;5034570;28;20537;-79
2023/08/25 12:34:17;;;;;;;7.57;5.60;;;27.30;99.90;;;;;;5034226;28;20474;-79
2023/08/25 12:36:44;;;;;;;5.33;4.93;;;27.30;99.90;;;;;;5039560;28;20501;-79
2023/08/25 12:39:21;;;;;;;6.40;6.00;;;27.30;99.90;;;;;;5026072;28;20547;-79
2023/08/25 12:41:47;;;;;;;5.87;5.40;;;27.30;99.90;;;;;;5046797;28;20469;-79
2023/08/25 12:44:16;;;;;;;5.80;5.27;;;27.40;99.90;;;;;;5033715;28;20483;-78
2023/08/25 12:46:45;;;;;;;6.83;5.60;;;27.30;99.90;;;;;;5034499;28;20464;-79
2023/08/25 12:49:13;;;;;;;6.93;6.27;;;27.20;99.90;;;;;;5033555;28;20476;-78
2023/08/25 12:51:40;;;;;;;6.63;6.17;;;27.10;99.90;;;;;;5034523;28;20474;-78
2023/08/25 12:54:14;;;;;;;8.00;6.83;;;27.10;99.90;;;;;;5033225;28;20502;-78
2023/08/25 12:56:42;;;;;;;7.40;6.80;;;27.10;99.90;;;;;;5033776;28;20457;-79
2023/08/25 12:59:09;;;;;;;6.73;6.23;;;27.00;99.90;;;;;;5033453;28;20484;-77
2023/08/25 13:01:40;;;;;;;6.53;6.03;;;27.10;99.90;;;;;;5033584;28;20481;-77
2023/08/25 13:04:09;;;;;;;7.17;6.40;;;27.00;99.90;;;;;;5033192;28;20814;-78
2023/08/25 13:06:36;;;;;;;6.90;6.30;;;27.00;99.90;;;;;;5033938;28;20540;-79
2023/08/25 13:09:04;;;;;;;8.77;8.00;;;27.00;99.90;;;;;;5033432;28;20592;-79
2023/08/25 13:11:39;;;;;;;8.57;7.77;;;27.00;99.90;;;;;;5033758;28;20989;-79
2023/08/25 13:14:06;;;;;;;8.63;7.80;;;26.90;99.90;;;;;;5038817;28;20554;-79